Time;durP1;ratioP1;P1;durP2;ratioP2;P2;SDS_P1;SDS_P2;PMS_P1;PMS_P2;Temp;Humidity;BMP_temperature;BMP_pressure;BME280_temperature;BME280_humidity;BME280_pressure;Samples;Min_cycle;Max_cycle;Signal;HPM_P1;HPM_P2
2023/03/13 01:41:49;;;;;;;97.23;87.83;;;7.30;93.10;;;;;;5066000;23;20327;-90
2023/03/13 01:44:21;;;;;;;98.17;89.53;;;7.30;93.30;;;;;;4959773;28;20297;-91
2023/03/13 01:46:46;;;;;;;96.03;87.93;;;7.30;93.30;;;;;;4959271;28;20203;-90
2023/03/13 01:49:21;;;;;;;98.50;89.67;;;7.20;93.40;;;;;;4976638;28;20210;-90
2023/03/13 01:51:52;;;;;;;96.27;87.97;;;7.30;93.40;;;;;;4976663;28;20170;-90
2023/03/13 01:54:31;;;;;;;95.33;86.83;;;7.30;93.40;;;;;;4976237;28;20191;-90
2023/03/13 01:57:29;;;;;;;97.20;88.20;;;7.30;93.40;;;;;;4976583;28;20171;-91
2023/03/13 01:59:59;;;;;;;95.30;86.77;;;7.20;93.40;;;;;;4957936;28;20229;-91
2023/03/13 02:02:26;;;;;;;92.10;84.20;;;7.30;93.40;;;;;;4976338;28;20253;-90
2023/03/13 02:04:57;;;;;;;93.77;84.53;;;7.30;93.40;;;;;;4976025;28;20199;-90
2023/03/13 02:07:36;;;;;;;97.90;86.87;;;7.30;93.40;;;;;;4958802;28;20175;-90
2023/03/13 02:10:02;;;;;;;92.57;83.07;;;7.30;93.40;;;;;;4958720;28;20171;-90
2023/03/13 02:12:37;;;;;;;84.10;76.47;;;7.30;93.40;;;;;;4958611;28;20183;-90
2023/03/13 02:15:18;;;;;;;91.63;83.00;;;7.30;93.40;;;;;;4958521;28;20202;-90
2023/03/13 02:17:46;;;;;;;93.03;84.17;;;7.30;93.40;;;;;;4958636;28;20265;-90
2023/03/13 02:20:14;;;;;;;89.57;82.17;;;7.30;93.40;;;;;;4975715;28;20195;-90
2023/03/13 02:22:52;;;;;;;90.77;83.30;;;7.30;93.30;;;;;;4975747;28;20660;-90
2023/03/13 02:25:18;;;;;;;95.23;86.03;;;7.40;93.30;;;;;;4958606;28;20665;-91
2023/03/13 02:27:45;;;;;;;93.27;85.97;;;7.40;93.40;;;;;;4976196;28;20217;-91
2023/03/13 02:30:13;;;;;;;97.27;88.37;;;7.40;93.60;;;;;;4975262;28;20187;-91
2023/03/13 02:32:39;;;;;;;95.30;87.57;;;7.40;93.60;;;;;;4958238;28;20183;-90
2023/03/13 02:35:11;;;;;;;94.10;85.43;;;7.40;93.50;;;;;;4975468;28;20210;-90
2023/03/13 02:37:37;;;;;;;97.03;88.57;;;7.50;93.60;;;;;;4958213;28;20187;-91
2023/03/13 02:40:09;;;;;;;92.60;84.33;;;7.50;93.60;;;;;;4975371;28;20209;-91
2023/03/13 02:42:39;;;;;;;94.03;85.27;;;7.50;93.60;;;;;;4975200;28;20194;-91
2023/03/13 02:45:05;;;;;;;94.40;86.20;;;7.50;93.60;;;;;;4957939;28;20199;-91
2023/03/13 02:47:31;;;;;;;93.23;85.03;;;7.50;93.50;;;;;;4975239;28;20206;-91
2023/03/13 02:49:56;;;;;;;99.70;91.90;;;7.50;93.60;;;;;;4975170;28;20198;-91
2023/03/13 02:52:28;;;;;;;101.20;92.23;;;7.50;93.70;;;;;;4958057;28;20186;-91
2023/03/13 02:55:01;;;;;;;104.00;95.97;;;7.50;93.80;;;;;;4957829;28;20241;-91
2023/03/13 02:57:28;;;;;;;105.47;95.43;;;7.50;93.90;;;;;;4975043;28;20693;-91
2023/03/13 02:59:54;;;;;;;110.17;100.67;;;7.50;93.90;;;;;;4957788;28;20207;-91
2023/03/13 03:02:19;;;;;;;112.40;102.83;;;7.50;94.00;;;;;;4957645;28;20190;-91
2023/03/13 03:04:45;;;;;;;112.10;102.47;;;7.40;94.10;;;;;;4975229;28;20202;-91
2023/03/13 03:07:10;;;;;;;111.73;103.13;;;7.50;94.10;;;;;;4957763;28;20794;-91
2023/03/13 03:09:36;;;;;;;106.00;98.07;;;7.50;94.10;;;;;;4975011;28;20182;-91
2023/03/13 03:12:02;;;;;;;117.17;106.83;;;7.50;94.10;;;;;;4957524;28;20321;-91
2023/03/13 03:14:27;;;;;;;114.97;104.93;;;7.50;94.10;;;;;;4957499;28;20238;-91
2023/03/13 03:16:53;;;;;;;107.03;98.90;;;7.50;94.20;;;;;;4957588;28;20186;-91
2023/03/13 03:19:18;;;;;;;113.37;103.40;;;7.50;94.10;;;;;;4975260;28;20202;-91
2023/03/13 03:21:44;;;;;;;111.13;102.47;;;7.50;94.00;;;;;;4957507;28;20273;-91
2023/03/13 03:24:10;;;;;;;116.60;106.27;;;7.60;94.10;;;;;;4957459;28;20202;-91
2023/03/13 03:26:36;;;;;;;119.73;110.07;;;7.50;94.10;;;;;;4957397;28;20673;-91
2023/03/13 03:29:01;;;;;;;114.90;104.77;;;7.50;94.20;;;;;;4957333;28;20229;-91
2023/03/13 03:31:27;;;;;;;114.93;105.70;;;7.50;94.20;;;;;;4974516;28;20226;-91
2023/03/13 03:33:52;;;;;;;113.57;104.63;;;7.60;94.10;;;;;;4957294;28;20194;-91
2023/03/13 03:36:20;;;;;;;117.97;108.53;;;7.50;94.10;;;;;;4957227;28;20175;-91
2023/03/13 03:38:46;;;;;;;117.23;109.43;;;7.60;94.10;;;;;;4974384;28;20191;-91
2023/03/13 03:41:13;;;;;;;117.03;108.10;;;7.50;94.20;;;;;;4956578;28;20193;-91
2023/03/13 03:43:38;;;;;;;125.87;114.80;;;7.60;94.40;;;;;;4957192;28;20229;-91
2023/03/13 03:46:04;;;;;;;126.13;116.37;;;7.60;94.30;;;;;;4974397;28;20202;-91
2023/03/13 03:48:30;;;;;;;119.60;110.87;;;7.60;94.30;;;;;;4957169;28;20179;-91
2023/03/13 03:50:55;;;;;;;130.47;119.40;;;7.50;94.40;;;;;;4957134;28;20651;-91
2023/03/13 03:53:21;;;;;;;125.43;115.33;;;7.60;94.40;;;;;;4974317;28;20704;-90
2023/03/13 03:55:47;;;;;;;127.63;118.17;;;7.60;94.40;;;;;;4974302;28;20575;-91
2023/03/13 03:58:12;;;;;;;131.27;120.80;;;7.60;94.50;;;;;;4974156;28;20179;-90
2023/03/13 04:00:38;;;;;;;133.67;122.63;;;7.60;94.50;;;;;;4974464;28;20535;-91
2023/03/13 04:03:03;;;;;;;130.03;119.53;;;7.60;94.50;;;;;;4956927;28;20657;-91
2023/03/13 04:05:29;;;;;;;128.10;118.70;;;7.60;94.50;;;;;;4957021;28;20178;-91
2023/03/13 04:07:54;;;;;;;122.07;112.50;;;7.70;94.60;;;;;;4974271;28;20174;-91
2023/03/13 04:10:20;;;;;;;131.53;121.23;;;7.70;94.60;;;;;;4957037;28;20187;-91
2023/03/13 04:12:47;;;;;;;132.07;123.03;;;7.70;94.60;;;;;;4956882;28;20187;-91
2023/03/13 04:15:12;;;;;;;136.27;124.83;;;7.70;94.60;;;;;;4956815;28;20229;-91
2023/03/13 04:17:38;;;;;;;139.37;129.83;;;7.60;94.60;;;;;;4956815;28;20649;-91
2023/03/13 04:20:05;;;;;;;144.10;133.20;;;7.60;94.70;;;;;;4956761;28;20214;-91
2023/03/13 04:22:30;;;;;;;149.73;137.97;;;7.60;94.80;;;;;;4974044;28;20174;-91
2023/03/13 04:24:56;;;;;;;148.27;136.50;;;7.50;94.80;;;;;;4974034;28;20198;-91
2023/03/13 04:27:22;;;;;;;154.50;143.33;;;7.60;95.00;;;;;;4956699;28;20229;-91
2023/03/13 04:29:47;;;;;;;155.47;143.83;;;7.60;95.00;;;;;;4973912;28;20186;-91
2023/03/13 04:32:13;;;;;;;152.70;141.10;;;7.60;95.10;;;;;;4973983;28;20183;-91
2023/03/13 04:34:38;;;;;;;157.77;146.23;;;7.50;95.10;;;;;;4956650;28;20206;-91
2023/03/13 04:37:04;;;;;;;160.77;149.17;;;7.60;95.20;;;;;;4956656;28;20175;-91
2023/03/13 04:39:29;;;;;;;150.40;139.07;;;7.60;95.10;;;;;;4956563;28;20319;-91
2023/03/13 04:41:55;;;;;;;153.67;142.60;;;7.60;95.10;;;;;;4956855;28;20198;-90
2023/03/13 04:44:21;;;;;;;152.63;142.77;;;7.70;95.20;;;;;;4973846;28;20191;-91
2023/03/13 04:46:48;;;;;;;146.63;135.77;;;7.70;95.20;;;;;;4973874;28;20179;-91
2023/03/13 04:49:14;;;;;;;162.40;150.30;;;7.70;95.20;;;;;;4956770;28;20193;-91
2023/03/13 04:51:41;;;;;;;165.57;152.33;;;7.70;95.20;;;;;;4957339;28;20174;-91
2023/03/13 04:54:07;;;;;;;172.00;157.83;;;7.70;95.30;;;;;;4961077;28;20198;-91
2023/03/13 04:56:33;;;;;;;172.03;158.80;;;7.70;95.30;;;;;;4960092;28;20554;-91
2023/03/13 04:58:58;;;;;;;174.47;162.00;;;7.60;95.40;;;;;;4977428;28;20208;-91
2023/03/13 05:01:24;;;;;;;172.37;160.13;;;7.60;95.50;;;;;;4960550;28;20637;-91
2023/03/13 05:03:49;;;;;;;172.60;160.83;;;7.60;95.50;;;;;;4960114;28;20202;-91
2023/03/13 05:06:15;;;;;;;168.67;155.57;;;7.70;95.60;;;;;;4977333;28;20644;-91
2023/03/13 05:08:41;;;;;;;169.43;158.00;;;7.70;95.60;;;;;;4977275;28;20214;-91
2023/03/13 05:11:06;;;;;;;166.07;155.83;;;7.70;95.60;;;;;;4959981;28;20175;-91
2023/03/13 05:13:32;;;;;;;168.50;156.83;;;7.70;95.70;;;;;;4976885;28;20751;-91
2023/03/13 05:15:58;;;;;;;172.47;161.43;;;7.70;95.70;;;;;;4976843;28;20539;-91
2023/03/13 05:18:23;;;;;;;173.63;161.80;;;7.70;95.70;;;;;;4959553;28;20231;-91
2023/03/13 05:20:49;;;;;;;166.70;156.13;;;7.70;95.70;;;;;;4959661;28;20183;-91
2023/03/13 05:23:14;;;;;;;174.40;163.13;;;7.70;95.80;;;;;;4959828;28;20270;-91
2023/03/13 05:25:40;;;;;;;159.93;150.07;;;7.80;95.80;;;;;;4976724;28;20171;-91
2023/03/13 05:28:06;;;;;;;167.50;155.97;;;7.70;95.80;;;;;;4959486;28;20190;-91
2023/03/13 05:30:31;;;;;;;164.87;153.27;;;7.80;95.80;;;;;;4976674;28;20175;-91
2023/03/13 05:32:57;;;;;;;160.43;149.30;;;7.80;95.90;;;;;;4959402;28;20178;-91
2023/03/13 05:35:22;;;;;;;151.17;142.07;;;7.80;95.90;;;;;;4959224;28;20253;-91
2023/03/13 05:37:48;;;;;;;148.23;139.00;;;7.80;95.90;;;;;;4959267;28;20322;-90
2023/03/13 05:40:14;;;;;;;163.03;152.43;;;7.90;95.90;;;;;;4976692;28;20209;-91
2023/03/13 05:42:39;;;;;;;166.10;155.50;;;7.90;95.90;;;;;;4959023;28;20198;-91
2023/03/13 05:45:07;;;;;;;162.30;152.47;;;7.90;95.90;;;;;;4959151;28;20226;-91
2023/03/13 05:47:33;;;;;;;160.83;151.03;;;8.00;95.90;;;;;;4976613;28;20271;-91
2023/03/13 05:49:58;;;;;;;152.80;143.70;;;8.00;95.90;;;;;;4959070;28;20250;-91
2023/03/13 05:52:24;;;;;;;155.23;145.70;;;8.00;95.80;;;;;;4959659;28;20186;-91
2023/03/13 05:54:49;;;;;;;157.77;148.00;;;8.10;95.80;;;;;;4958984;28;20206;-91
2023/03/13 05:57:15;;;;;;;157.00;147.90;;;8.10;95.80;;;;;;4958959;28;20179;-91
2023/03/13 05:59:40;;;;;;;148.37;140.13;;;8.20;95.70;;;;;;4958959;28;20210;-91
2023/03/13 06:02:06;;;;;;;154.17;145.17;;;8.10;95.70;;;;;;4958712;28;20179;-91
2023/03/13 06:04:32;;;;;;;162.90;153.17;;;8.20;95.70;;;;;;4958278;28;20226;-91
2023/03/13 06:06:57;;;;;;;157.83;148.87;;;8.30;95.70;;;;;;4959087;28;20179;-91
2023/03/13 06:09:23;;;;;;;145.90;137.63;;;8.20;95.70;;;;;;4958700;28;20197;-91
2023/03/13 06:11:48;;;;;;;147.03;138.10;;;8.20;95.70;;;;;;4958590;28;20193;-91
2023/03/13 06:14:14;;;;;;;147.13;138.47;;;8.30;95.70;;;;;;4958552;28;20209;-91
2023/03/13 06:16:40;;;;;;;158.27;149.57;;;8.30;95.80;;;;;;4975756;28;20225;-91
2023/03/13 06:19:05;;;;;;;146.20;137.77;;;8.40;95.80;;;;;;4958530;28;20199;-91
2023/03/13 06:21:31;;;;;;;145.70;137.23;;;8.50;95.80;;;;;;4958488;28;20730;-91
2023/03/13 06:23:56;;;;;;;148.10;139.30;;;8.50;95.80;;;;;;4958260;28;20198;-91
2023/03/13 06:26:24;;;;;;;141.83;134.07;;;8.50;95.90;;;;;;4958444;28;20189;-91
2023/03/13 06:28:50;;;;;;;154.90;145.87;;;8.60;95.90;;;;;;4958333;28;20724;-91
2023/03/13 06:31:16;;;;;;;149.90;141.30;;;8.50;95.90;;;;;;4975621;28;20190;-91
2023/03/13 06:33:42;;;;;;;140.50;132.47;;;8.50;95.90;;;;;;4958176;28;20213;-91
2023/03/13 06:36:08;;;;;;;148.90;140.47;;;8.60;95.90;;;;;;4958200;28;20586;-91
2023/03/13 06:38:34;;;;;;;144.20;136.10;;;8.60;95.80;;;;;;4975372;28;20203;-91
2023/03/13 06:40:59;;;;;;;148.37;139.97;;;8.70;95.90;;;;;;4975295;28;20198;-91
2023/03/13 06:43:25;;;;;;;145.80;136.73;;;8.70;95.80;;;;;;4957915;28;20213;-91
2023/03/13 06:45:51;;;;;;;145.53;137.13;;;8.70;95.80;;;;;;4958052;28;20688;-91
2023/03/13 06:48:17;;;;;;;150.97;142.10;;;8.70;95.80;;;;;;4957896;28;20187;-91
2023/03/13 06:50:43;;;;;;;145.37;137.27;;;8.70;95.80;;;;;;4957976;28;20202;-91
2023/03/13 06:53:17;;;;;;;149.83;141.30;;;8.80;95.90;;;;;;4958189;28;20174;-91
2023/03/13 06:55:44;;;;;;;149.00;140.80;;;8.90;95.80;;;;;;4958159;28;20217;-91
2023/03/13 06:58:09;;;;;;;146.77;138.53;;;9.00;95.80;;;;;;4975068;28;20179;-91
2023/03/13 07:00:35;;;;;;;152.70;144.30;;;9.00;95.80;;;;;;4957696;28;20182;-91
2023/03/13 07:03:01;;;;;;;157.03;147.90;;;8.90;95.80;;;;;;4974930;28;20230;-91
2023/03/13 07:05:26;;;;;;;162.93;153.87;;;9.00;95.90;;;;;;4957980;28;20190;-91
2023/03/13 07:07:52;;;;;;;165.00;155.73;;;9.00;96.00;;;;;;4975273;28;20650;-91
2023/03/13 07:10:18;;;;;;;158.70;149.80;;;9.00;96.00;;;;;;4975070;28;20183;-91
2023/03/13 07:12:43;;;;;;;150.53;141.93;;;9.00;96.10;;;;;;4957661;28;20186;-91
2023/03/13 07:15:09;;;;;;;156.17;147.23;;;9.00;96.10;;;;;;4974020;28;20249;-91
2023/03/13 07:17:35;;;;;;;151.87;142.67;;;9.10;96.20;;;;;;4958078;28;20182;-91
2023/03/13 07:20:01;;;;;;;148.23;140.10;;;9.10;96.20;;;;;;4957538;28;20209;-91
2023/03/13 07:22:26;;;;;;;155.40;146.77;;;9.20;96.30;;;;;;4957401;28;20606;-91
2023/03/13 07:24:52;;;;;;;147.10;139.00;;;9.20;96.30;;;;;;4974588;28;20190;-91
2023/03/13 07:27:19;;;;;;;149.50;141.20;;;9.20;96.40;;;;;;4957351;28;20175;-91
2023/03/13 07:29:45;;;;;;;108.53;102.40;;;9.20;96.40;;;;;;4957458;28;20210;-91
2023/03/13 07:32:11;;;;;;;109.20;103.00;;;9.30;96.40;;;;;;4957217;28;20193;-91
2023/03/13 07:34:36;;;;;;;99.77;94.00;;;9.20;96.40;;;;;;4974744;28;20202;-91
2023/03/13 07:37:02;;;;;;;94.83;89.53;;;9.30;96.50;;;;;;4957208;28;20234;-91
2023/03/13 07:39:27;;;;;;;100.53;94.80;;;9.30;96.50;;;;;;4957128;28;20327;-92
2023/03/13 07:41:53;;;;;;;103.97;97.77;;;9.30;96.60;;;;;;4974609;28;20323;-91
2023/03/13 07:44:18;;;;;;;106.63;100.27;;;9.30;96.60;;;;;;4974455;28;20709;-91
2023/03/13 07:46:44;;;;;;;105.57;99.67;;;9.40;96.60;;;;;;4957107;28;20266;-91
2023/03/13 07:49:10;;;;;;;121.13;114.13;;;9.50;96.60;;;;;;4957132;28;20184;-92
2023/03/13 07:51:36;;;;;;;135.03;127.53;;;9.50;96.60;;;;;;4974263;28;20197;-91
2023/03/13 07:54:01;;;;;;;144.30;136.03;;;9.60;96.60;;;;;;4956921;28;20194;-91
2023/03/13 07:56:27;;;;;;;144.17;135.23;;;9.60;96.60;;;;;;4956968;28;20206;-91
2023/03/13 07:58:52;;;;;;;135.07;127.27;;;9.60;96.50;;;;;;4974198;28;20285;-91
2023/03/13 08:01:21;;;;;;;145.23;136.93;;;9.80;96.50;;;;;;4956946;28;20226;-91
2023/03/13 08:03:50;;;;;;;144.07;136.10;;;9.80;96.40;;;;;;4974039;28;20194;-91
2023/03/13 08:06:22;;;;;;;144.77;136.57;;;9.80;96.30;;;;;;4956875;28;20274;-91
2023/03/13 08:08:48;;;;;;;147.90;139.47;;;9.90;96.40;;;;;;4974484;28;20179;-91
2023/03/13 08:11:19;;;;;;;154.73;145.80;;;9.90;96.30;;;;;;4956852;28;20318;-91
2023/03/13 08:13:45;;;;;;;148.03;139.63;;;10.00;96.40;;;;;;4956928;28;20218;-91
2023/03/13 08:16:16;;;;;;;148.57;140.27;;;10.10;96.30;;;;;;4956912;28;20179;-91
2023/03/13 08:18:47;;;;;;;150.37;141.67;;;10.20;96.30;;;;;;4974083;28;20277;-91
2023/03/13 08:21:15;;;;;;;145.90;137.10;;;10.20;96.30;;;;;;4974175;28;20230;-91
2023/03/13 08:23:41;;;;;;;139.77;131.87;;;10.30;96.30;;;;;;4956683;28;20203;-91
2023/03/13 08:26:09;;;;;;;138.77;130.87;;;10.30;96.30;;;;;;4974126;28;20757;-91
2023/03/13 08:28:36;;;;;;;142.00;133.77;;;10.40;96.30;;;;;;4960302;28;20187;-91
2023/03/13 08:31:16;;;;;;;142.63;134.53;;;10.40;96.30;;;;;;4977832;28;20206;-91
2023/03/13 08:33:43;;;;;;;143.87;135.57;;;10.50;96.30;;;;;;4960617;28;20206;-91
2023/03/13 08:36:23;;;;;;;143.67;135.57;;;10.50;96.30;;;;;;4960396;28;20187;-91
2023/03/13 08:38:49;;;;;;;150.83;142.27;;;10.60;96.30;;;;;;4960223;28;20256;-91
2023/03/13 08:41:17;;;;;;;142.73;134.43;;;10.60;96.30;;;;;;4977405;28;20661;-91
2023/03/13 08:43:44;;;;;;;148.00;139.00;;;10.70;96.30;;;;;;4960421;28;20195;-91
2023/03/13 08:46:10;;;;;;;147.40;138.97;;;10.70;96.30;;;;;;4960214;28;20190;-91
2023/03/13 08:48:35;;;;;;;151.20;142.23;;;10.70;96.30;;;;;;4960876;28;20541;-91
2023/03/13 08:51:04;;;;;;;149.17;140.80;;;10.70;96.30;;;;;;4977576;28;20182;-91
2023/03/13 08:53:30;;;;;;;152.47;143.87;;;10.80;96.30;;;;;;4977398;28;20199;-91
2023/03/13 08:55:55;;;;;;;154.60;145.63;;;10.80;96.30;;;;;;4960886;28;20237;-91
2023/03/13 08:58:21;;;;;;;161.83;152.57;;;10.80;96.20;;;;;;4960493;28;20657;-89
2023/03/13 09:00:46;;;;;;;157.97;149.07;;;10.80;96.20;;;;;;4977194;28;20189;-89
2023/03/13 09:03:12;;;;;;;154.13;145.03;;;10.90;96.20;;;;;;4977097;28;20182;-89
2023/03/13 09:05:37;;;;;;;166.07;156.47;;;11.00;96.00;;;;;;4977156;28;20528;-90
2023/03/13 09:08:03;;;;;;;164.43;154.97;;;11.10;95.90;;;;;;4977249;28;20650;-91
2023/03/13 09:10:31;;;;;;;163.13;154.00;;;11.10;95.80;;;;;;4959937;28;20179;-91
2023/03/13 09:12:57;;;;;;;165.20;155.60;;;11.10;95.80;;;;;;4977508;28;20203;-91
2023/03/13 09:15:22;;;;;;;164.53;155.53;;;11.20;95.60;;;;;;4977430;28;20198;-91
2023/03/13 09:17:48;;;;;;;166.60;157.33;;;11.30;95.20;;;;;;4977057;28;20527;-91
2023/03/13 09:20:13;;;;;;;174.43;164.73;;;11.30;95.10;;;;;;4959727;28;20206;-88
2023/03/13 09:22:39;;;;;;;170.73;161.30;;;11.30;94.90;;;;;;4977332;28;20174;-90
2023/03/13 09:25:05;;;;;;;166.83;157.23;;;11.30;94.80;;;;;;4977065;28;20199;-90
2023/03/13 09:27:30;;;;;;;164.70;155.57;;;11.50;94.80;;;;;;4978247;28;20175;-91
2023/03/13 09:29:56;;;;;;;171.50;161.73;;;11.60;94.60;;;;;;4959615;28;20187;-91
2023/03/13 09:32:22;;;;;;;155.40;146.63;;;11.60;94.50;;;;;;4959908;28;20174;-91
2023/03/13 09:34:47;;;;;;;170.40;160.90;;;11.60;94.40;;;;;;4977315;28;20246;-90
2023/03/13 09:37:13;;;;;;;157.30;148.60;;;11.60;94.40;;;;;;4976828;28;20214;-90
2023/03/13 09:39:38;;;;;;;171.23;161.63;;;11.70;94.40;;;;;;4958514;28;20220;-91
2023/03/13 09:42:13;;;;;;;189.87;179.40;;;11.70;94.70;;;;;;4959560;28;20285;-91
2023/03/13 09:44:56;;;;;;;190.30;179.70;;;11.70;94.80;;;;;;4959378;28;20197;-92
2023/03/13 09:47:37;;;;;;;185.57;174.97;;;11.60;94.90;;;;;;4976940;28;20609;-92
2023/03/13 09:50:13;;;;;;;198.47;187.40;;;11.60;94.90;;;;;;4960171;28;20188;-92
2023/03/13 09:52:40;;;;;;;203.43;192.47;;;11.50;95.00;;;;;;4959252;28;20180;-92
2023/03/13 09:55:16;;;;;;;185.87;175.77;;;11.60;95.10;;;;;;4976485;28;20257;-92
2023/03/13 09:57:58;;;;;;;185.43;175.27;;;11.70;95.00;;;;;;4959144;28;20237;-91
2023/03/13 10:00:28;;;;;;;200.33;189.60;;;11.70;94.90;;;;;;4959538;28;20202;-91
2023/03/13 10:03:18;;;;;;;196.43;185.63;;;11.70;94.90;;;;;;4976281;28;20708;-91
2023/03/13 10:05:54;;;;;;;181.70;171.47;;;11.80;94.90;;;;;;4959002;28;20265;-92
2023/03/13 10:08:25;;;;;;;175.67;165.87;;;11.80;94.70;;;;;;4976327;28;20167;-92
2023/03/13 10:11:20;;;;;;;183.83;173.23;;;11.80;94.70;;;;;;4959039;28;20178;-91
2023/03/13 10:13:59;;;;;;;187.80;177.40;;;11.80;94.60;;;;;;4976146;28;20197;-92
2023/03/13 10:16:37;;;;;;;199.77;188.67;;;11.80;94.70;;;;;;4976396;28;20609;-91
2023/03/13 10:19:14;;;;;;;198.03;187.03;;;12.00;95.00;;;;;;4958708;28;20652;-92
2023/03/13 10:21:43;;;;;;;186.80;176.50;;;12.30;94.90;;;;;;4959031;28;20190;-91
2023/03/13 10:24:41;;;;;;;175.70;165.43;;;12.30;94.50;;;;;;4976275;28;20338;-92
2023/03/13 10:27:08;;;;;;;158.33;149.37;;;12.30;94.00;;;;;;4975988;28;20183;-90
2023/03/13 10:29:34;;;;;;;162.37;153.37;;;12.50;93.70;;;;;;4976018;28;20233;-88
2023/03/13 10:32:05;;;;;;;154.43;145.73;;;12.80;93.70;;;;;;4959297;28;20170;-88
2023/03/13 10:35:00;;;;;;;141.50;133.37;;;12.80;93.20;;;;;;4958143;28;20195;-87
2023/03/13 10:37:46;;;;;;;142.07;134.20;;;12.80;93.00;;;;;;4938410;28;20214;-89
2023/03/13 10:40:13;;;;;;;143.73;135.77;;;12.80;92.70;;;;;;4975196;28;20210;-90
2023/03/13 10:42:44;;;;;;;136.27;128.43;;;12.80;92.40;;;;;;4975363;28;20218;-90
2023/03/13 10:45:16;;;;;;;130.80;123.07;;;12.90;92.20;;;;;;4975508;28;20190;-91
2023/03/13 10:47:42;;;;;;;105.20;99.10;;;12.80;91.60;;;;;;4975364;28;20158;-91
2023/03/13 10:50:19;;;;;;;91.30;85.80;;;12.80;90.70;;;;;;4975037;28;20653;-90
2023/03/13 10:52:47;;;;;;;100.83;94.83;;;12.80;90.10;;;;;;4957996;28;20202;-91
2023/03/13 10:55:24;;;;;;;75.80;71.33;;;12.80;90.30;;;;;;4975103;28;20195;-88
2023/03/13 10:58:01;;;;;;;54.13;50.93;;;12.80;89.10;;;;;;4975492;28;20191;-89
2023/03/13 11:00:32;;;;;;;61.17;57.47;;;12.90;87.40;;;;;;4975330;28;20246;-89
2023/03/13 11:02:58;;;;;;;70.77;66.67;;;13.10;87.70;;;;;;4974963;28;20174;-90
2023/03/13 11:05:33;;;;;;;74.17;69.67;;;13.10;88.20;;;;;;4974936;28;20179;-90
2023/03/13 11:08:11;;;;;;;68.33;64.00;;;13.20;88.40;;;;;;4974918;28;20174;-90
2023/03/13 11:10:46;;;;;;;72.97;68.57;;;13.40;88.00;;;;;;4975008;28;20182;-90
2023/03/13 11:13:27;;;;;;;63.93;60.00;;;13.50;88.30;;;;;;4974930;28;20167;-90
2023/03/13 11:15:58;;;;;;;54.00;50.80;;;13.50;87.40;;;;;;4975004;28;20555;-89
2023/03/13 11:18:34;;;;;;;54.07;50.67;;;13.50;86.60;;;;;;4957435;28;20261;-90
2023/03/13 11:21:02;;;;;;;51.17;48.07;;;13.50;86.10;;;;;;4975087;28;20621;-91
2023/03/13 11:23:49;;;;;;;58.13;54.30;;;13.50;86.00;;;;;;4974785;28;20235;-90
2023/03/13 11:26:33;;;;;;;57.53;53.93;;;13.50;86.50;;;;;;4973956;28;20229;-92
2023/03/13 11:29:18;;;;;;;50.90;47.73;;;13.50;86.70;;;;;;4976241;28;20179;-91
2023/03/13 11:31:47;;;;;;;57.17;53.77;;;13.50;86.30;;;;;;4977767;28;20185;-92
2023/03/13 11:34:31;;;;;;;52.90;49.67;;;13.40;86.80;;;;;;4959329;28;20210;-91
2023/03/13 11:37:14;;;;;;;53.93;50.83;;;13.50;86.30;;;;;;4957401;28;20213;-90
2023/03/13 11:40:21;;;;;;;45.03;42.40;;;13.50;86.30;;;;;;4960562;28;20273;-91
2023/03/13 11:43:16;;;;;;;50.37;47.20;;;14.00;85.80;;;;;;4958135;28;20190;-91
2023/03/13 11:46:03;;;;;;;33.93;31.73;;;14.30;85.40;;;;;;4975473;28;20163;-89
2023/03/13 11:48:37;;;;;;;32.30;30.10;;;14.60;83.50;;;;;;4976612;28;20590;-88
2023/03/13 11:51:32;;;;;;;33.95;31.88;;;14.70;82.60;;;;;;4974588;28;20249;-90
2023/03/13 11:54:42;;;;;;;29.70;27.77;;;14.80;82.30;;;;;;4937194;28;20213;-91
2023/03/13 11:57:15;;;;;;;28.23;26.43;;;14.80;81.90;;;;;;4959949;28;20162;-91
2023/03/13 11:59:55;;;;;;;31.67;29.60;;;14.80;81.00;;;;;;4976614;28;20190;-91
2023/03/13 12:02:31;;;;;;;27.63;25.53;;;14.90;81.10;;;;;;4976400;28;20600;-90
2023/03/13 12:05:06;;;;;;;27.63;26.00;;;15.00;79.60;;;;;;4978588;28;20677;-90
2023/03/13 12:07:44;;;;;;;26.33;24.63;;;14.90;77.20;;;;;;4978625;28;20163;-89
2023/03/13 12:10:29;;;;;;;30.27;28.48;;;14.90;76.80;;;;;;4978479;28;20625;-89
2023/03/13 12:13:12;;;;;;;31.23;29.33;;;14.50;77.60;;;;;;4978103;28;20197;-88
2023/03/13 12:15:44;;;;;;;33.17;30.95;;;14.50;80.30;;;;;;4978189;28;20535;-89
2023/03/13 12:18:37;;;;;;;34.07;31.70;;;14.30;80.90;;;;;;4978096;28;20213;-89
2023/03/13 12:21:11;;;;;;;32.07;30.13;;;14.20;81.10;;;;;;4960664;28;20171;-90
2023/03/13 12:24:03;;;;;;;32.83;30.83;;;14.40;81.20;;;;;;4978544;28;20288;-90
2023/03/13 12:26:45;;;;;;;30.10;28.03;;;14.50;81.00;;;;;;4961545;28;20553;-89
2023/03/13 12:29:22;;;;;;;28.57;26.67;;;14.30;80.00;;;;;;4977805;28;20546;-89
2023/03/13 12:32:03;;;;;;;29.17;27.17;;;14.40;78.60;;;;;;4960558;28;20171;-90
2023/03/13 12:34:52;;;;;;;28.13;26.43;;;14.30;79.30;;;;;;4977891;28;20241;-90
2023/03/13 12:37:42;;;;;;;22.53;20.70;;;14.30;78.90;;;;;;4977966;28;20556;-90
2023/03/13 12:40:13;;;;;;;20.60;19.10;;;14.80;76.70;;;;;;4977649;28;20194;-90
2023/03/13 12:42:52;;;;;;;21.73;20.10;;;14.80;77.10;;;;;;4977769;28;20193;-90
2023/03/13 12:45:22;;;;;;;18.35;16.77;;;14.80;75.80;;;;;;4977779;28;20202;-90
2023/03/13 12:48:06;;;;;;;19.17;17.80;;;14.80;72.90;;;;;;4977612;28;20163;-90
2023/03/13 12:50:38;;;;;;;18.33;16.90;;;15.00;74.00;;;;;;4978064;28;20170;-90
2023/03/13 12:53:37;;;;;;;19.83;18.23;;;14.80;73.90;;;;;;4960058;28;20182;-90
2023/03/13 12:56:17;;;;;;;18.10;16.73;;;14.90;74.20;;;;;;4960000;28;20175;-90
2023/03/13 12:58:50;;;;;;;20.40;16.10;;;14.80;72.50;;;;;;4977333;28;20179;-89
2023/03/13 13:01:26;;;;;;;17.38;16.08;;;14.70;74.10;;;;;;4977598;28;20163;-90
2023/03/13 13:04:11;;;;;;;20.42;18.77;;;14.60;74.40;;;;;;4977174;28;20573;-90
2023/03/13 13:06:54;;;;;;;19.88;18.42;;;14.50;76.40;;;;;;4977158;28;20190;-90
2023/03/13 13:09:30;;;;;;;19.53;18.10;;;14.50;76.60;;;;;;4977173;28;20205;-90
2023/03/13 13:12:18;;;;;;;19.17;17.67;;;14.90;76.40;;;;;;4977419;28;20564;-87
2023/03/13 13:14:46;;;;;;;17.42;15.93;;;15.10;75.60;;;;;;4958450;28;20222;-90
2023/03/13 13:17:30;;;;;;;17.80;16.05;;;15.30;74.60;;;;;;4976970;28;20552;-89
2023/03/13 13:19:56;;;;;;;18.30;16.88;;;15.50;73.20;;;;;;4976893;28;20532;-89
2023/03/13 13:22:36;;;;;;;17.70;16.50;;;15.50;72.70;;;;;;4976845;28;20177;-89
2023/03/13 13:25:28;;;;;;;16.77;15.60;;;15.70;72.50;;;;;;4959494;28;20699;-89
2023/03/13 13:27:54;;;;;;;17.35;16.08;;;15.80;72.10;;;;;;4977109;28;20218;-89
2023/03/13 13:30:19;;;;;;;17.92;16.50;;;15.80;71.50;;;;;;4976764;28;20171;-90
2023/03/13 13:32:49;;;;;;;16.80;15.65;;;15.50;72.80;;;;;;4959458;28;20202;-89
2023/03/13 13:35:25;;;;;;;15.32;14.43;;;15.60;71.10;;;;;;4976916;28;20225;-89
2023/03/13 13:37:51;;;;;;;16.75;15.38;;;15.60;71.40;;;;;;4976674;28;20170;-89
2023/03/13 13:40:21;;;;;;;16.67;15.27;;;15.50;70.00;;;;;;4976939;28;20558;-89
2023/03/13 13:42:52;;;;;;;15.52;14.48;;;15.40;70.90;;;;;;4977215;28;20194;-90
2023/03/13 13:45:34;;;;;;;15.77;14.68;;;15.40;70.90;;;;;;4976629;28;20186;-90
2023/03/13 13:48:27;;;;;;;16.42;15.20;;;15.30;72.50;;;;;;4976765;28;20165;-90
2023/03/13 13:51:10;;;;;;;17.40;15.82;;;15.50;71.10;;;;;;4976648;28;20171;-90
2023/03/13 13:53:46;;;;;;;14.80;13.90;;;15.90;69.00;;;;;;4976658;28;20258;-89
2023/03/13 13:56:30;;;;;;;15.45;14.55;;;15.30;71.50;;;;;;4976256;28;20246;-90
2023/03/13 13:59:16;;;;;;;15.55;14.45;;;15.50;69.60;;;;;;4958844;28;20198;-89
2023/03/13 14:01:42;;;;;;;17.83;16.13;;;15.90;69.40;;;;;;4976487;28;20167;-89
2023/03/13 14:04:29;;;;;;;17.27;15.88;;;15.80;67.80;;;;;;4958843;28;20573;-89
2023/03/13 14:07:00;;;;;;;16.70;15.23;;;15.90;67.30;;;;;;4976373;28;20178;-90
2023/03/13 14:09:51;;;;;;;16.48;15.10;;;15.60;68.60;;;;;;4976085;28;20218;-89
2023/03/13 14:12:31;;;;;;;17.30;15.95;;;15.50;69.10;;;;;;4976031;28;20164;-89
2023/03/13 14:15:06;;;;;;;16.77;15.50;;;15.70;68.30;;;;;;4976048;28;20198;-89
2023/03/13 14:17:38;;;;;;;17.58;16.15;;;15.70;67.20;;;;;;4958667;28;20178;-89
2023/03/13 14:20:07;;;;;;;16.13;15.02;;;15.50;68.80;;;;;;4975856;28;20203;-89